Time;durP1;ratioP1;P1;durP2;ratioP2;P2;SDS_P1;SDS_P2;PMS_P1;PMS_P2;Temp;Humidity;BMP_temperature;BMP_pressure;BME280_temperature;BME280_humidity;BME280_pressure;Samples;Min_cycle;Max_cycle;Signal;HPM_P1;HPM_P2
2022/11/23 00:01:24;;;;;;;0.57;0.40;;;;;;;;;;5072049;28;20028;-62
2022/11/23 00:03:51;;;;;;;1.30;0.70;;;;;;;;;;5071766;28;20029;-61
2022/11/23 00:06:20;;;;;;;12.13;1.27;;;;;;;;;;5068025;28;20470;-62
2022/11/23 00:08:47;;;;;;;1.70;1.20;;;;;;;;;;5067016;28;20421;-62
2022/11/23 00:11:13;;;;;;;3.47;2.37;;;;;;;;;;5066977;28;20033;-63
2022/11/23 00:13:40;;;;;;;6.13;2.33;;;;;;;;;;5066593;28;20029;-63
2022/11/23 00:16:15;;;;;;;26.50;13.17;;;;;;;;;;5072207;28;20077;-62
2022/11/23 00:18:42;;;;;;;8.95;4.60;;;;;;;;;;5072190;28;20107;-62
2022/11/23 00:21:10;;;;;;;6.97;3.37;;;;;;;;;;5072930;28;20471;-62
2022/11/23 00:23:37;;;;;;;3.93;2.33;;;;;;;;;;5070556;28;20021;-61
2022/11/23 00:26:04;;;;;;;1.17;0.87;;;;;;;;;;5069794;28;20051;-63
2022/11/23 00:28:36;;;;;;;9.37;0.87;;;;;;;;;;5065838;28;20051;-61
2022/11/23 00:31:02;;;;;;;3.83;0.97;;;;;;;;;;5069738;28;20021;-63
2022/11/23 00:33:29;;;;;;;1.10;0.80;;;;;;;;;;5070887;28;20095;-64
2022/11/23 00:36:00;;;;;;;0.83;0.57;;;;;;;;;;5070304;28;20490;-63
2022/11/23 00:38:28;;;;;;;0.57;0.37;;;;;;;;;;5075914;28;20387;-63
2022/11/23 00:40:58;;;;;;;0.80;0.60;;;;;;;;;;5075994;28;20028;-63
2022/11/23 00:43:25;;;;;;;4.10;0.83;;;;;;;;;;5075979;28;20020;-64
2022/11/23 00:46:01;;;;;;;1.33;0.50;;;;;;;;;;5075562;28;20024;-61
2022/11/23 00:48:28;;;;;;;1.57;0.70;;;;;;;;;;5056518;28;20021;-63
2022/11/23 00:50:54;;;;;;;2.80;0.73;;;;;;;;;;5064876;28;20154;-63
2022/11/23 00:53:21;;;;;;;1.30;0.73;;;;;;;;;;5071020;28;20029;-62
2022/11/23 00:55:54;;;;;;;7.50;1.20;;;;;;;;;;5070139;28;20121;-63
2022/11/23 00:58:21;;;;;;;1.57;0.70;;;;;;;;;;5070865;28;20045;-63
2022/11/23 01:00:47;;;;;;;1.60;0.90;;;;;;;;;;5075384;28;20033;-62
2022/11/23 01:03:15;;;;;;;1.73;1.00;;;;;;;;;;5075583;28;20049;-61
2022/11/23 01:05:41;;;;;;;0.60;0.40;;;;;;;;;;5074976;28;20028;-62
2022/11/23 01:08:08;;;;;;;1.40;0.40;;;;;;;;;;5075548;28;20033;-61
2022/11/23 01:10:35;;;;;;;28.23;1.33;;;;;;;;;;5075595;28;20021;-61
2022/11/23 01:13:01;;;;;;;1.40;0.80;;;;;;;;;;5069881;28;20479;-64
2022/11/23 01:15:28;;;;;;;10.57;0.83;;;;;;;;;;5070401;28;20022;-63
2022/11/23 01:17:55;;;;;;;0.53;0.50;;;;;;;;;;5070354;28;20048;-63
2022/11/23 01:20:21;;;;;;;3.60;0.70;;;;;;;;;;5070508;28;20037;-62
2022/11/23 01:22:48;;;;;;;2.60;0.90;;;;;;;;;;5074591;28;20404;-61
2022/11/23 01:25:15;;;;;;;0.53;0.40;;;;;;;;;;5075563;28;20033;-62
2022/11/23 01:27:41;;;;;;;0.83;0.70;;;;;;;;;;5074951;28;20028;-62
2022/11/23 01:30:08;;;;;;;0.97;0.70;;;;;;;;;;5061003;28;20106;-60
2022/11/23 01:32:35;;;;;;;2.33;0.77;;;;;;;;;;5071579;28;20032;-61
2022/11/23 01:35:02;;;;;;;0.70;0.53;;;;;;;;;;5070435;28;20036;-62
2022/11/23 01:37:28;;;;;;;1.27;1.00;;;;;;;;;;5069868;28;20037;-61
2022/11/23 01:39:55;;;;;;;2.80;1.57;;;;;;;;;;5069241;28;20039;-63
2022/11/23 01:42:21;;;;;;;1.20;0.80;;;;;;;;;;5069289;28;20025;-62
2022/11/23 01:44:48;;;;;;;1.53;0.70;;;;;;;;;;5073219;28;20028;-61
2022/11/23 01:47:15;;;;;;;0.50;0.37;;;;;;;;;;5074808;28;20024;-61
2022/11/23 01:49:43;;;;;;;1.70;0.70;;;;;;;;;;5074325;28;20028;-61
2022/11/23 01:52:12;;;;;;;1.80;0.77;;;;;;;;;;5075048;28;20048;-62
2022/11/23 01:54:49;;;;;;;16.57;2.30;;;;;;;;;;5073983;28;20029;-63
2022/11/23 01:57:23;;;;;;;0.37;0.37;;;;;;;;;;5066996;28;20044;-62
2022/11/23 01:59:51;;;;;;;0.60;0.40;;;;;;;;;;5064580;28;20024;-63
2022/11/23 02:02:17;;;;;;;0.33;0.23;;;;;;;;;;5068973;28;20037;-63
2022/11/23 02:04:45;;;;;;;0.37;0.23;;;;;;;;;;5069455;28;20056;-61
2022/11/23 02:07:13;;;;;;;1.90;0.83;;;;;;;;;;5072925;28;20031;-61
2022/11/23 02:09:41;;;;;;;0.40;0.20;;;;;;;;;;5074008;28;20434;-61
2022/11/23 02:12:14;;;;;;;1.10;0.60;;;;;;;;;;5073160;28;20095;-62
2022/11/23 02:14:41;;;;;;;0.53;0.50;;;;;;;;;;5072412;28;20467;-61
2022/11/23 02:17:08;;;;;;;0.60;0.50;;;;;;;;;;5070661;28;20037;-60
2022/11/23 02:19:37;;;;;;;0.27;0.17;;;;;;;;;;5068527;28;20032;-64
2022/11/23 02:22:07;;;;;;;0.77;0.50;;;;;;;;;;5067392;28;20029;-62
2022/11/23 02:24:36;;;;;;;2.50;1.13;;;;;;;;;;5067358;28;20063;-61
2022/11/23 02:27:05;;;;;;;2.73;1.37;;;;;;;;;;5066675;28;20086;-61
2022/11/23 02:29:33;;;;;;;6.27;2.87;;;;;;;;;;5070044;28;20082;-61
2022/11/23 02:32:00;;;;;;;0.83;0.50;;;;;;;;;;5072278;28;20029;-61
2022/11/23 02:34:26;;;;;;;0.70;0.50;;;;;;;;;;5072031;28;20426;-62
2022/11/23 02:36:54;;;;;;;3.67;0.97;;;;;;;;;;5071629;28;20029;-63
2022/11/23 02:39:36;;;;;;;1.17;0.77;;;;;;;;;;5070606;28;20414;-62
2022/11/23 02:42:04;;;;;;;0.67;0.60;;;;;;;;;;5066670;28;20043;-62
2022/11/23 02:44:37;;;;;;;0.50;0.50;;;;;;;;;;5065813;28;20431;-61
2022/11/23 02:47:05;;;;;;;0.90;0.33;;;;;;;;;;5065713;28;20419;-61
2022/11/23 02:49:32;;;;;;;1.13;0.77;;;;;;;;;;5065695;28;20021;-61
2022/11/23 02:51:58;;;;;;;11.50;0.97;;;;;;;;;;5070121;28;20035;-61
2022/11/23 02:54:25;;;;;;;1.27;0.80;;;;;;;;;;5070256;28;20024;-61
2022/11/23 02:56:51;;;;;;;0.80;0.80;;;;;;;;;;5073027;28;20032;-61
2022/11/23 02:59:18;;;;;;;2.17;0.93;;;;;;;;;;5072117;28;20024;-61
2022/11/23 03:01:45;;;;;;;2.73;1.10;;;;;;;;;;5072809;28;20032;-61
2022/11/23 03:04:12;;;;;;;0.23;0.23;;;;;;;;;;5069233;28;20093;-62
2022/11/23 03:06:38;;;;;;;0.80;0.50;;;;;;;;;;5062200;28;20028;-61
2022/11/23 03:09:05;;;;;;;0.60;0.43;;;;;;;;;;5068406;28;20029;-61
2022/11/23 03:11:32;;;;;;;0.30;0.30;;;;;;;;;;5062768;28;20025;-61
2022/11/23 03:13:59;;;;;;;1.47;0.80;;;;;;;;;;5058498;28;20028;-61
2022/11/23 03:16:26;;;;;;;10.03;1.07;;;;;;;;;;5071967;28;20032;-62
2022/11/23 03:18:53;;;;;;;3.70;0.63;;;;;;;;;;5071272;28;20036;-61
2022/11/23 03:21:19;;;;;;;0.30;0.23;;;;;;;;;;5070449;28;20490;-61
2022/11/23 03:23:46;;;;;;;2.27;1.03;;;;;;;;;;5072430;28;20487;-61
2022/11/23 03:26:12;;;;;;;2.37;1.70;;;;;;;;;;5069151;28;20021;-62
2022/11/23 03:28:39;;;;;;;3.87;1.70;;;;;;;;;;5067871;28;20111;-61
2022/11/23 03:31:06;;;;;;;4.53;1.13;;;;;;;;;;5067996;28;20028;-61
2022/11/23 03:33:33;;;;;;;4.20;0.30;;;;;;;;;;5067641;28;20024;-62
2022/11/23 03:36:00;;;;;;;0.40;0.20;;;;;;;;;;5071166;28;20083;-61
2022/11/23 03:38:26;;;;;;;0.30;0.30;;;;;;;;;;5072554;28;20028;-61
2022/11/23 03:40:53;;;;;;;4.77;2.20;;;;;;;;;;5072969;28;20515;-61
2022/11/23 03:43:20;;;;;;;0.67;0.43;;;;;;;;;;5072721;28;20437;-61
2022/11/23 03:45:47;;;;;;;0.83;0.37;;;;;;;;;;5072569;28;20026;-62
2022/11/23 03:48:14;;;;;;;0.50;0.30;;;;;;;;;;5069230;28;20027;-62
2022/11/23 03:50:40;;;;;;;0.00;0.00;;;;;;;;;;5067584;28;20025;-61
2022/11/23 03:53:07;;;;;;;0.57;0.20;;;;;;;;;;5067848;28;20029;-61
2022/11/23 03:55:34;;;;;;;0.23;0.20;;;;;;;;;;5067553;28;20056;-62
2022/11/23 03:58:01;;;;;;;0.00;0.00;;;;;;;;;;5069247;28;20025;-61
2022/11/23 04:00:28;;;;;;;0.50;0.33;;;;;;;;;;5071953;28;20548;-62
2022/11/23 04:02:55;;;;;;;0.50;0.30;;;;;;;;;;5070822;28;20032;-62
2022/11/23 04:05:22;;;;;;;0.10;0.00;;;;;;;;;;5074256;28;20020;-61
2022/11/23 04:07:49;;;;;;;0.20;0.13;;;;;;;;;;5075907;28;20035;-61
2022/11/23 04:10:17;;;;;;;0.10;0.10;;;;;;;;;;5073276;28;20031;-62
2022/11/23 04:12:44;;;;;;;1.60;0.30;;;;;;;;;;5070706;28;20090;-61
2022/11/23 04:15:11;;;;;;;1.43;0.20;;;;;;;;;;5070801;28;20020;-61
2022/11/23 04:17:38;;;;;;;0.87;0.33;;;;;;;;;;5069414;28;20116;-62
2022/11/23 04:20:05;;;;;;;0.00;0.00;;;;;;;;;;5072666;28;20074;-62
2022/11/23 04:22:32;;;;;;;0.00;0.00;;;;;;;;;;5074394;28;20029;-61
2022/11/23 04:24:58;;;;;;;0.63;0.30;;;;;;;;;;5074738;28;20111;-61
2022/11/23 04:27:25;;;;;;;0.53;0.30;;;;;;;;;;5074914;28;20115;-62
2022/11/23 04:29:52;;;;;;;0.73;0.50;;;;;;;;;;5075552;28;20032;-61
2022/11/23 04:32:18;;;;;;;0.20;0.13;;;;;;;;;;5073302;28;20099;-61
2022/11/23 04:34:45;;;;;;;0.57;0.30;;;;;;;;;;5069982;28;20379;-61
2022/11/23 04:37:12;;;;;;;0.90;0.40;;;;;;;;;;5050178;28;20495;-61
2022/11/23 04:39:39;;;;;;;0.33;0.30;;;;;;;;;;5053211;28;20031;-61
2022/11/23 04:42:05;;;;;;;0.10;0.10;;;;;;;;;;5071353;28;20036;-61
2022/11/23 04:44:32;;;;;;;9.83;0.60;;;;;;;;;;5074784;28;20024;-61
2022/11/23 04:46:59;;;;;;;0.33;0.33;;;;;;;;;;5067075;28;20367;-61
2022/11/23 04:49:26;;;;;;;0.50;0.40;;;;;;;;;;5070337;28;20074;-61
2022/11/23 04:51:52;;;;;;;0.70;0.40;;;;;;;;;;5075092;28;20039;-62
2022/11/23 04:54:19;;;;;;;0.57;0.40;;;;;;;;;;5072168;28;20028;-62
2022/11/23 04:56:45;;;;;;;0.53;0.37;;;;;;;;;;5069332;28;20546;-61
2022/11/23 04:59:12;;;;;;;0.63;0.53;;;;;;;;;;5069190;28;20441;-61
2022/11/23 05:01:42;;;;;;;0.60;0.30;;;;;;;;;;5061864;28;20116;-61
2022/11/23 05:04:09;;;;;;;0.90;0.60;;;;;;;;;;5067368;28;20028;-62
2022/11/23 05:06:35;;;;;;;0.50;0.40;;;;;;;;;;5075032;28;20029;-61
2022/11/23 05:09:02;;;;;;;0.70;0.37;;;;;;;;;;5071836;28;20050;-62
2022/11/23 05:11:29;;;;;;;1.20;0.70;;;;;;;;;;5057500;28;20096;-62
2022/11/23 05:13:56;;;;;;;0.43;0.30;;;;;;;;;;5058897;28;20021;-61
2022/11/23 05:16:22;;;;;;;0.10;0.03;;;;;;;;;;5072451;28;20375;-61
2022/11/23 05:18:49;;;;;;;0.43;0.37;;;;;;;;;;5069460;28;20024;-63
2022/11/23 05:21:16;;;;;;;0.07;0.07;;;;;;;;;;5064972;28;20032;-63
2022/11/23 05:23:42;;;;;;;0.43;0.43;;;;;;;;;;5063414;28;20021;-61
2022/11/23 05:26:09;;;;;;;0.83;0.37;;;;;;;;;;5066136;28;20032;-61
2022/11/23 05:28:36;;;;;;;0.50;0.40;;;;;;;;;;5062641;28;20078;-61
2022/11/23 05:31:03;;;;;;;0.37;0.30;;;;;;;;;;5060735;28;20060;-61
2022/11/23 05:33:30;;;;;;;0.33;0.27;;;;;;;;;;5068765;28;20016;-62
2022/11/23 05:35:57;;;;;;;0.23;0.20;;;;;;;;;;5067918;28;20435;-61
2022/11/23 05:38:23;;;;;;;0.77;0.43;;;;;;;;;;5068065;28;20036;-62
2022/11/23 05:40:50;;;;;;;0.33;0.30;;;;;;;;;;5052818;28;20036;-61
2022/11/23 05:43:17;;;;;;;1.80;0.90;;;;;;;;;;5048689;28;20043;-61
2022/11/23 05:45:44;;;;;;;0.20;0.20;;;;;;;;;;5053275;28;20507;-62
2022/11/23 05:48:10;;;;;;;1.67;0.50;;;;;;;;;;5062406;28;20041;-61
2022/11/23 05:50:37;;;;;;;0.17;0.17;;;;;;;;;;5071585;28;20044;-62
2022/11/23 05:53:04;;;;;;;0.67;0.40;;;;;;;;;;5061016;28;20434;-62
2022/11/23 05:55:31;;;;;;;0.60;0.50;;;;;;;;;;5054190;28;20498;-61
2022/11/23 05:57:58;;;;;;;0.47;0.37;;;;;;;;;;5068900;28;20177;-63
2022/11/23 06:00:24;;;;;;;0.30;0.23;;;;;;;;;;5065982;28;20415;-62
2022/11/23 06:02:51;;;;;;;0.20;0.20;;;;;;;;;;5064777;28;20035;-62
2022/11/23 06:05:18;;;;;;;0.13;0.13;;;;;;;;;;5067676;28;20025;-61
2022/11/23 06:07:44;;;;;;;0.30;0.23;;;;;;;;;;5067055;28;20120;-62
2022/11/23 06:10:12;;;;;;;0.17;0.17;;;;;;;;;;5067243;28;20066;-62
2022/11/23 06:12:38;;;;;;;3.17;0.43;;;;;;;;;;5072420;28;20103;-63
2022/11/23 06:15:05;;;;;;;0.13;0.07;;;;;;;;;;5057263;28;20024;-62
2022/11/23 06:17:32;;;;;;;0.60;0.40;;;;;;;;;;5058299;28;20033;-62
2022/11/23 06:19:58;;;;;;;2.20;0.50;;;;;;;;;;5071897;28;20378;-63
2022/11/23 06:22:25;;;;;;;0.67;0.50;;;;;;;;;;5072412;28;20341;-62
2022/11/23 06:24:52;;;;;;;1.43;0.70;;;;;;;;;;5066443;28;20024;-63
2022/11/23 06:27:18;;;;;;;0.13;0.13;;;;;;;;;;5063290;28;20024;-63
2022/11/23 06:29:46;;;;;;;0.23;0.20;;;;;;;;;;5064658;28;20020;-63
2022/11/23 06:32:12;;;;;;;1.43;0.40;;;;;;;;;;5052966;28;20450;-61
2022/11/23 06:34:39;;;;;;;0.33;0.33;;;;;;;;;;5052387;28;20076;-62
2022/11/23 06:37:06;;;;;;;0.80;0.53;;;;;;;;;;5052878;28;20082;-62
2022/11/23 06:39:32;;;;;;;0.67;0.40;;;;;;;;;;5052664;28;20020;-62
2022/11/23 06:41:59;;;;;;;0.97;0.67;;;;;;;;;;5052783;28;20067;-61
2022/11/23 06:44:25;;;;;;;0.40;0.30;;;;;;;;;;5065564;28;20032;-62
2022/11/23 06:46:52;;;;;;;0.30;0.30;;;;;;;;;;5067708;28;20114;-62
2022/11/23 06:49:20;;;;;;;1.07;0.40;;;;;;;;;;5067793;28;20111;-62
2022/11/23 06:51:47;;;;;;;8.00;0.67;;;;;;;;;;5067777;28;20028;-62
2022/11/23 06:54:14;;;;;;;1.17;0.23;;;;;;;;;;5067440;28;20501;-62
2022/11/23 06:56:40;;;;;;;1.03;0.67;;;;;;;;;;5071785;28;20025;-62
2022/11/23 06:59:07;;;;;;;0.23;0.20;;;;;;;;;;5073068;28;20032;-62
2022/11/23 07:01:34;;;;;;;0.20;0.20;;;;;;;;;;5072880;28;20074;-61
2022/11/23 07:04:00;;;;;;;0.50;0.30;;;;;;;;;;5072229;28;20155;-62
2022/11/23 07:06:27;;;;;;;0.30;0.27;;;;;;;;;;5072753;28;20381;-62
2022/11/23 07:08:54;;;;;;;5.30;1.33;;;;;;;;;;5068095;28;20024;-62
2022/11/23 07:11:21;;;;;;;1.03;0.27;;;;;;;;;;5067162;28;20111;-62
2022/11/23 07:13:48;;;;;;;1.23;0.40;;;;;;;;;;5067308;28;20028;-61
2022/11/23 07:16:14;;;;;;;6.70;0.50;;;;;;;;;;5067047;28;20482;-61
2022/11/23 07:18:41;;;;;;;0.30;0.30;;;;;;;;;;5070405;28;20107;-63
2022/11/23 07:21:08;;;;;;;0.23;0.20;;;;;;;;;;5072435;28;20028;-63
2022/11/23 07:23:39;;;;;;;0.30;0.20;;;;;;;;;;5072307;28;20035;-62
2022/11/23 07:26:06;;;;;;;0.30;0.30;;;;;;;;;;5072582;28;20028;-61
2022/11/23 07:28:33;;;;;;;0.20;0.20;;;;;;;;;;5072464;28;20025;-61
2022/11/23 07:30:59;;;;;;;1.07;0.60;;;;;;;;;;5068044;28;20039;-62
2022/11/23 07:33:26;;;;;;;0.20;0.20;;;;;;;;;;5066892;28;20032;-62
2022/11/23 07:35:53;;;;;;;0.20;0.20;;;;;;;;;;5066660;28;20437;-62
2022/11/23 07:38:19;;;;;;;0.20;0.20;;;;;;;;;;5066683;28;20037;-62
2022/11/23 07:40:50;;;;;;;2.27;0.40;;;;;;;;;;5069808;28;20024;-62
2022/11/23 07:43:16;;;;;;;1.47;0.47;;;;;;;;;;5072203;28;20541;-62
2022/11/23 07:45:43;;;;;;;0.53;0.37;;;;;;;;;;5071725;28;20106;-62
2022/11/23 07:48:11;;;;;;;0.27;0.20;;;;;;;;;;5072086;28;20425;-61
2022/11/23 07:50:38;;;;;;;0.20;0.13;;;;;;;;;;5071794;28;20017;-62
2022/11/23 07:53:06;;;;;;;1.33;0.47;;;;;;;;;;5068406;28;20048;-61
2022/11/23 07:55:32;;;;;;;0.57;0.47;;;;;;;;;;5066703;28;20033;-62
2022/11/23 07:57:59;;;;;;;0.67;0.50;;;;;;;;;;5066702;28;20033;-62
2022/11/23 08:00:27;;;;;;;0.63;0.47;;;;;;;;;;5066742;28;20025;-62
2022/11/23 08:02:53;;;;;;;0.17;0.13;;;;;;;;;;5069659;28;20104;-62
2022/11/23 08:05:20;;;;;;;0.93;0.20;;;;;;;;;;5071289;28;20399;-63
2022/11/23 08:07:48;;;;;;;0.30;0.20;;;;;;;;;;5072171;28;20150;-62
2022/11/23 08:10:14;;;;;;;0.10;0.10;;;;;;;;;;5072119;28;20387;-62
2022/11/23 08:12:41;;;;;;;0.13;0.13;;;;;;;;;;5071980;28;20475;-61
2022/11/23 08:15:08;;;;;;;0.23;0.20;;;;;;;;;;5068430;28;20029;-62
2022/11/23 08:17:35;;;;;;;0.67;0.43;;;;;;;;;;5066442;28;20101;-61
2022/11/23 08:20:01;;;;;;;0.53;0.37;;;;;;;;;;5066412;28;20032;-61
2022/11/23 08:22:28;;;;;;;0.87;0.40;;;;;;;;;;5065911;28;20047;-62
2022/11/23 08:24:55;;;;;;;0.77;0.40;;;;;;;;;;5069242;28;20499;-62
2022/11/23 08:27:21;;;;;;;0.63;0.30;;;;;;;;;;5071768;28;20020;-62
2022/11/23 08:29:48;;;;;;;0.23;0.10;;;;;;;;;;5071915;28;20017;-62
2022/11/23 08:32:15;;;;;;;2.10;0.57;;;;;;;;;;5071799;28;20039;-61
2022/11/23 08:34:43;;;;;;;0.20;0.20;;;;;;;;;;5071606;28;20078;-62
2022/11/23 08:37:10;;;;;;;0.50;0.30;;;;;;;;;;5068161;28;20028;-61
2022/11/23 08:39:36;;;;;;;0.20;0.20;;;;;;;;;;5066051;28;20028;-62
2022/11/23 08:42:03;;;;;;;0.10;0.10;;;;;;;;;;5066343;28;20096;-62
2022/11/23 08:44:30;;;;;;;0.00;0.00;;;;;;;;;;5066035;28;20059;-62
2022/11/23 08:46:56;;;;;;;0.20;0.20;;;;;;;;;;5068551;28;20074;-62
2022/11/23 08:49:23;;;;;;;0.83;0.30;;;;;;;;;;5071728;28;20052;-61
2022/11/23 08:51:50;;;;;;;1.47;0.60;;;;;;;;;;5074759;28;20082;-62
2022/11/23 08:54:16;;;;;;;0.40;0.30;;;;;;;;;;5074796;28;20094;-62
2022/11/23 08:56:43;;;;;;;0.83;0.37;;;;;;;;;;5075158;28;20056;-62
2022/11/23 08:59:11;;;;;;;0.10;0.10;;;;;;;;;;5072048;28;20035;-61
2022/11/23 09:01:37;;;;;;;0.67;0.50;;;;;;;;;;5069591;28;20472;-61
2022/11/23 09:04:04;;;;;;;0.00;0.00;;;;;;;;;;5069405;28;20274;-62
2022/11/23 09:06:34;;;;;;;0.17;0.10;;;;;;;;;;5069805;28;20256;-61
2022/11/23 09:09:01;;;;;;;0.33;0.17;;;;;;;;;;5071224;28;20031;-61
2022/11/23 09:11:27;;;;;;;0.43;0.30;;;;;;;;;;5074969;28;20273;-62
2022/11/23 09:13:54;;;;;;;0.10;0.10;;;;;;;;;;5075007;28;20032;-62
2022/11/23 09:16:21;;;;;;;1.37;0.73;;;;;;;;;;5074697;28;20475;-61
2022/11/23 09:18:48;;;;;;;0.40;0.30;;;;;;;;;;5074446;28;20029;-63
2022/11/23 09:21:15;;;;;;;0.40;0.40;;;;;;;;;;5052356;28;20269;-61
2022/11/23 09:23:42;;;;;;;0.40;0.30;;;;;;;;;;5048922;28;20021;-63
2022/11/23 09:26:09;;;;;;;0.17;0.17;;;;;;;;;;5049242;28;20017;-62
2022/11/23 09:28:36;;;;;;;0.20;0.20;;;;;;;;;;5049232;28;20025;-62
2022/11/23 09:31:03;;;;;;;0.70;0.50;;;;;;;;;;5056634;28;20077;-62
2022/11/23 09:33:30;;;;;;;0.17;0.10;;;;;;;;;;5074647;28;20025;-61
2022/11/23 09:36:01;;;;;;;0.17;0.17;;;;;;;;;;5074034;28;20036;-62
2022/11/23 09:38:28;;;;;;;0.73;0.30;;;;;;;;;;5074058;28;20494;-63
2022/11/23 09:41:06;;;;;;;0.17;0.10;;;;;;;;;;5074579;28;20102;-62
2022/11/23 09:43:32;;;;;;;0.00;0.00;;;;;;;;;;5071614;28;20024;-62
2022/11/23 09:46:02;;;;;;;0.40;0.23;;;;;;;;;;5068901;28;20475;-62
2022/11/23 09:48:43;;;;;;;0.13;0.13;;;;;;;;;;5068882;28;20258;-61
2022/11/23 09:51:13;;;;;;;0.00;0.00;;;;;;;;;;5068421;28;20418;-61
2022/11/23 09:53:43;;;;;;;0.10;0.10;;;;;;;;;;5071454;28;20048;-61
2022/11/23 09:56:28;;;;;;;0.00;0.00;;;;;;;;;;5074331;28;20115;-62
2022/11/23 09:58:57;;;;;;;0.07;0.07;;;;;;;;;;5073646;28;20025;-62
2022/11/23 10:01:26;;;;;;;0.40;0.13;;;;;;;;;;5074005;28;20020;-63
2022/11/23 10:03:53;;;;;;;0.10;0.10;;;;;;;;;;5073635;28;20100;-61
2022/11/23 10:06:21;;;;;;;0.10;0.10;;;;;;;;;;5070088;28;20467;-62
2022/11/23 10:08:54;;;;;;;0.00;0.00;;;;;;;;;;5068521;28;20288;-61
2022/11/23 10:11:21;;;;;;;0.00;0.00;;;;;;;;;;5068169;28;20131;-62
2022/11/23 10:13:56;;;;;;;0.20;0.20;;;;;;;;;;5067988;28;20261;-61
2022/11/23 10:16:35;;;;;;;0.27;0.13;;;;;;;;;;5071898;28;20036;-62
2022/11/23 10:19:08;;;;;;;0.43;0.40;;;;;;;;;;5073489;28;20024;-61
2022/11/23 10:21:41;;;;;;;0.07;0.07;;;;;;;;;;5073738;28;20715;-62
2022/11/23 10:24:08;;;;;;;0.40;0.30;;;;;;;;;;5073665;28;20256;-62
2022/11/23 10:26:37;;;;;;;0.13;0.13;;;;;;;;;;5073251;28;20025;-61
2022/11/23 10:29:20;;;;;;;0.20;0.20;;;;;;;;;;5068465;28;20276;-62
2022/11/23 10:31:48;;;;;;;0.57;0.27;;;;;;;;;;5068190;28;20261;-62
2022/11/23 10:34:17;;;;;;;0.30;0.30;;;;;;;;;;5067531;28;20428;-61
2022/11/23 10:36:44;;;;;;;0.00;0.00;;;;;;;;;;5067681;28;20361;-62
2022/11/23 10:39:13;;;;;;;1.17;0.40;;;;;;;;;;5072763;28;20281;-62
2022/11/23 10:41:40;;;;;;;0.47;0.30;;;;;;;;;;5073251;28;20471;-61
2022/11/23 10:44:32;;;;;;;0.33;0.27;;;;;;;;;;5072815;28;20086;-63
2022/11/23 10:47:00;;;;;;;1.27;0.47;;;;;;;;;;5049818;28;20040;-62
2022/11/23 10:49:28;;;;;;;0.13;0.10;;;;;;;;;;5052293;28;20258;-62
2022/11/23 10:51:56;;;;;;;0.00;0.00;;;;;;;;;;5047483;28;20312;-62
2022/11/23 10:54:23;;;;;;;0.23;0.20;;;;;;;;;;5047866;28;20617;-62
2022/11/23 10:56:50;;;;;;;0.10;0.10;;;;;;;;;;5047560;28;20032;-63
2022/11/23 10:59:34;;;;;;;0.07;0.07;;;;;;;;;;5047670;28;20320;-62
2022/11/23 11:02:03;;;;;;;0.40;0.20;;;;;;;;;;5052854;28;20257;-62
2022/11/23 11:04:29;;;;;;;0.00;0.00;;;;;;;;;;5053844;28;20025;-62
2022/11/23 11:07:22;;;;;;;0.73;0.33;;;;;;;;;;5072433;28;20276;-62
2022/11/23 11:09:59;;;;;;;0.13;0.10;;;;;;;;;;5068415;28;20269;-61
2022/11/23 11:12:26;;;;;;;0.47;0.30;;;;;;;;;;5070250;28;20268;-62
2022/11/23 11:15:01;;;;;;;1.70;0.77;;;;;;;;;;5066314;28;20254;-62
2022/11/23 11:17:32;;;;;;;0.30;0.20;;;;;;;;;;5067064;28;20289;-62
2022/11/23 11:20:00;;;;;;;0.43;0.30;;;;;;;;;;5066999;28;20024;-61
2022/11/23 11:22:37;;;;;;;0.53;0.20;;;;;;;;;;5068972;28;20261;-61
2022/11/23 11:25:04;;;;;;;1.10;0.23;;;;;;;;;;5072635;28;20755;-61
2022/11/23 11:27:32;;;;;;;0.20;0.20;;;;;;;;;;5072271;28;20253;-63
2022/11/23 11:30:20;;;;;;;0.00;0.00;;;;;;;;;;5072448;28;20264;-61
2022/11/23 11:32:49;;;;;;;0.10;0.10;;;;;;;;;;5072590;28;20257;-61
2022/11/23 11:35:22;;;;;;;0.63;0.23;;;;;;;;;;5068626;28;20344;-61
2022/11/23 11:37:54;;;;;;;1.30;0.50;;;;;;;;;;5066341;28;20338;-61
2022/11/23 11:40:29;;;;;;;0.50;0.23;;;;;;;;;;5066504;28;20265;-62
2022/11/23 11:42:59;;;;;;;0.67;0.20;;;;;;;;;;5066549;28;20265;-61
2022/11/23 11:45:28;;;;;;;0.10;0.10;;;;;;;;;;5070816;28;20257;-62
2022/11/23 11:47:58;;;;;;;0.00;0.00;;;;;;;;;;5072212;28;20612;-62
2022/11/23 11:50:26;;;;;;;1.13;0.40;;;;;;;;;;5072215;28;20671;-62
2022/11/23 11:52:56;;;;;;;2.67;0.37;;;;;;;;;;5072251;28;20740;-61
2022/11/23 11:55:35;;;;;;;0.00;0.00;;;;;;;;;;5072140;28;20285;-62
2022/11/23 11:58:22;;;;;;;0.17;0.10;;;;;;;;;;5066922;28;20285;-62
2022/11/23 12:00:49;;;;;;;0.87;0.57;;;;;;;;;;5066370;28;20288;-62
2022/11/23 12:03:21;;;;;;;0.20;0.13;;;;;;;;;;5066745;28;20257;-62
2022/11/23 12:05:49;;;;;;;0.20;0.13;;;;;;;;;;5066580;28;20344;-62
2022/11/23 12:08:16;;;;;;;0.63;0.23;;;;;;;;;;5072081;28;20740;-62
2022/11/23 12:10:50;;;;;;;0.27;0.23;;;;;;;;;;5071661;28;20249;-62
2022/11/23 12:13:22;;;;;;;0.03;0.03;;;;;;;;;;5072095;28;20253;-62
2022/11/23 12:15:56;;;;;;;0.30;0.30;;;;;;;;;;5071980;28;20249;-61
2022/11/23 12:18:22;;;;;;;5.50;0.70;;;;;;;;;;5070784;28;20283;-62
2022/11/23 12:21:01;;;;;;;0.43;0.40;;;;;;;;;;5065991;28;20272;-63
2022/11/23 12:23:34;;;;;;;1.67;0.90;;;;;;;;;;5066428;28;20613;-62
2022/11/23 12:26:27;;;;;;;0.20;0.20;;;;;;;;;;5068485;28;20257;-62
2022/11/23 12:28:57;;;;;;;1.30;0.53;;;;;;;;;;5067437;28;20676;-61
2022/11/23 12:31:39;;;;;;;0.10;0.10;;;;;;;;;;5075736;28;20257;-61
2022/11/23 12:34:16;;;;;;;0.57;0.50;;;;;;;;;;5075568;28;20253;-61
2022/11/23 12:37:01;;;;;;;0.40;0.23;;;;;;;;;;5075164;28;20274;-62
2022/11/23 12:39:27;;;;;;;0.75;0.38;;;;;;;;;;5075720;28;20295;-62
2022/11/23 12:41:59;;;;;;;0.20;0.17;;;;;;;;;;5071664;28;20028;-61
2022/11/23 12:44:44;;;;;;;0.03;0.03;;;;;;;;;;5070254;28;20624;-62
2022/11/23 12:47:17;;;;;;;0.15;0.13;;;;;;;;;;5070050;28;20333;-61
2022/11/23 12:49:45;;;;;;;0.17;0.17;;;;;;;;;;5069827;28;20029;-61
2022/11/23 12:52:12;;;;;;;2.60;0.60;;;;;;;;;;5074017;28;20261;-62
2022/11/23 12:54:57;;;;;;;2.77;0.63;;;;;;;;;;5075515;28;20261;-61
2022/11/23 12:57:26;;;;;;;0.60;0.40;;;;;;;;;;5075179;28;20828;-61
2022/11/23 13:00:05;;;;;;;0.20;0.10;;;;;;;;;;5075222;28;20078;-62
2022/11/23 13:02:44;;;;;;;0.10;0.10;;;;;;;;;;5055080;28;20254;-61
2022/11/23 13:05:19;;;;;;;0.40;0.30;;;;;;;;;;5049553;28;20601;-61
2022/11/23 13:07:49;;;;;;;0.77;0.43;;;;;;;;;;5049691;28;20308;-61
2022/11/23 13:10:21;;;;;;;2.40;0.90;;;;;;;;;;5049643;28;20262;-61
2022/11/23 13:13:05;;;;;;;0.73;0.40;;;;;;;;;;5050234;28;20264;-62
2022/11/23 13:15:34;;;;;;;0.47;0.40;;;;;;;;;;5055085;28;20285;-62
2022/11/23 13:18:01;;;;;;;0.10;0.10;;;;;;;;;;5054921;28;20282;-61
2022/11/23 13:20:28;;;;;;;0.60;0.37;;;;;;;;;;5056874;28;20250;-61
2022/11/23 13:22:56;;;;;;;0.90;0.70;;;;;;;;;;5074705;28;20262;-61
2022/11/23 13:25:27;;;;;;;1.30;0.57;;;;;;;;;;5072567;28;20719;-62
2022/11/23 13:27:54;;;;;;;2.90;1.17;;;;;;;;;;5069279;28;20264;-61
2022/11/23 13:30:32;;;;;;;1.23;0.70;;;;;;;;;;5068797;28;20306;-63
2022/11/23 13:32:58;;;;;;;0.93;0.83;;;;;;;;;;5069272;28;20319;-62
2022/11/23 13:35:25;;;;;;;1.83;0.70;;;;;;;;;;5070961;28;20845;-62
2022/11/23 13:38:01;;;;;;;6.27;2.17;;;;;;;;;;5072834;28;20647;-63
2022/11/23 13:40:35;;;;;;;1.27;0.80;;;;;;;;;;5074595;28;20684;-62
2022/11/23 13:43:03;;;;;;;2.07;1.03;;;;;;;;;;5074259;28;20047;-63
2022/11/23 13:45:32;;;;;;;3.33;1.00;;;;;;;;;;5074501;28;20108;-62
2022/11/23 13:48:08;;;;;;;1.47;0.87;;;;;;;;;;5071562;28;20021;-62
2022/11/23 13:50:55;;;;;;;3.40;0.40;;;;;;;;;;5068609;28;20033;-62
2022/11/23 13:53:33;;;;;;;0.57;0.20;;;;;;;;;;5068303;28;20036;-63
2022/11/23 13:56:17;;;;;;;0.77;0.20;;;;;;;;;;5068298;28;20029;-63
2022/11/23 13:58:54;;;;;;;0.20;0.17;;;;;;;;;;5072715;28;20025;-62
2022/11/23 14:01:39;;;;;;;0.20;0.20;;;;;;;;;;5074260;28;20078;-62
2022/11/23 14:04:23;;;;;;;15.35;1.00;;;;;;;;;;5074150;28;20028;-62
2022/11/23 14:07:09;;;;;;;0.50;0.47;;;;;;;;;;5074095;28;20494;-63
2022/11/23 14:09:42;;;;;;;0.37;0.27;;;;;;;;;;5055348;28;20480;-63
2022/11/23 14:12:12;;;;;;;0.20;0.20;;;;;;;;;;5067087;28;20546;-63
2022/11/23 14:14:50;;;;;;;1.87;1.07;;;;;;;;;;5068311;28;20028;-62
2022/11/23 14:17:16;;;;;;;3.50;1.67;;;;;;;;;;5068217;28;20047;-62
2022/11/23 14:20:01;;;;;;;2.00;1.03;;;;;;;;;;5069603;28;20024;-63
2022/11/23 14:22:39;;;;;;;1.08;0.60;;;;;;;;;;5073692;28;20032;-63
2022/11/23 14:25:23;;;;;;;2.53;1.00;;;;;;;;;;5073333;28;20416;-62
2022/11/23 14:27:53;;;;;;;1.05;0.77;;;;;;;;;;5073154;28;20028;-63
2022/11/23 14:30:38;;;;;;;4.20;0.80;;;;;;;;;;5073497;28;20028;-63
2022/11/23 14:33:11;;;;;;;1.75;1.20;;;;;;;;;;5068940;28;20094;-63
2022/11/23 14:35:45;;;;;;;1.53;0.93;;;;;;;;;;5067899;28;20033;-63
2022/11/23 14:38:31;;;;;;;0.70;0.50;;;;;;;;;;5067791;28;20051;-63
2022/11/23 14:41:04;;;;;;;1.13;0.67;;;;;;;;;;5067755;28;20154;-63
2022/11/23 14:43:31;;;;;;;1.20;0.87;;;;;;;;;;5072567;28;20027;-63
2022/11/23 14:46:02;;;;;;;1.07;0.50;;;;;;;;;;5072700;28;20024;-63
2022/11/23 14:48:33;;;;;;;0.53;0.33;;;;;;;;;;5073137;28;20029;-63
2022/11/23 14:51:05;;;;;;;1.13;0.60;;;;;;;;;;5072974;28;20494;-63
2022/11/23 14:53:38;;;;;;;1.57;0.70;;;;;;;;;;5072585;28;20021;-63
2022/11/23 14:56:05;;;;;;;1.53;0.90;;;;;;;;;;5067447;28;20048;-64